VDPP/PNH METAR and TAF weather

Enter ICAO airport designator
Station Type Date Time Source
VDPP METAR 2020/11/25 23:00 UTC NOAA

VDPP 252300Z 01004KT 9999 SCT017 25/20 Q1010


Station Type Date Time Source
VDPP Decoded METAR 2020/11/25 23:00 UTC NOAA

Phnom-Penh / Pochentong, Cambodia (VDPP) 11-33N 104-51E 10M
Nov 25, 2020 - 06:00 PM EST / 2020.11.25 2300 UTC
Wind: from the N (010 degrees) at 5 MPH (4 KT):0
Visibility: greater than 7 mile(s):0
Sky conditions: partly cloudy
Temperature: 77 F (25 C)
Dew Point: 68 F (20 C)
Relative Humidity: 73%
Pressure (altimeter): 29.83 in. Hg (1010 hPa)
ob: VDPP 252300Z 01004KT 9999 SCT017 25/20 Q1010
cycle: 23

Station Type Date Time Source
VDPP TAF 2020/11/25 18:00 UTC NOAA

TAF VDPP 251700Z 2518/2612 05008KT 9999 SCT017

Example: see airport list